createdAt,value
2023-02-28T00:01:37.027Z,85
2023-02-28T00:05:02.217Z,85
2023-02-28T00:08:27.338Z,85
2023-02-28T00:11:52.522Z,85
2023-02-28T00:15:17.677Z,85
2023-02-28T00:18:42.865Z,84
2023-02-28T00:22:08.032Z,84
2023-02-28T00:25:33.248Z,85
2023-02-28T00:28:58.427Z,85
2023-02-28T00:32:23.564Z,85
2023-02-28T00:35:48.728Z,84
2023-02-28T00:39:13.875Z,84
2023-02-28T00:42:39.042Z,85
2023-02-28T00:46:04.282Z,85
2023-02-28T00:49:29.384Z,85
2023-02-28T00:52:54.531Z,84
2023-02-28T00:56:19.703Z,84
2023-02-28T00:59:44.864Z,83
2023-02-28T01:03:10.041Z,83
2023-02-28T01:06:35.179Z,82
2023-02-28T01:10:00.352Z,82
2023-02-28T01:13:25.514Z,83
2023-02-28T01:16:50.662Z,82
2023-02-28T01:20:15.896Z,82
2023-02-28T01:23:41.010Z,82
2023-02-28T01:27:06.155Z,82
2023-02-28T01:30:31.319Z,82
2023-02-28T01:33:56.499Z,82
2023-02-28T01:37:21.659Z,82
2023-02-28T01:40:46.801Z,82
2023-02-28T01:44:11.945Z,82
2023-02-28T01:47:37.120Z,82
2023-02-28T01:51:02.327Z,83
2023-02-28T01:54:27.508Z,82
2023-02-28T01:57:52.621Z,82
2023-02-28T02:01:17.818Z,83
2023-02-28T02:04:42.966Z,82
2023-02-28T02:08:08.132Z,82
2023-02-28T02:11:33.331Z,81
2023-02-28T02:14:58.452Z,81
2023-02-28T02:18:23.603Z,82
2023-02-28T02:21:48.799Z,82
2023-02-28T02:25:13.939Z,82
2023-02-28T02:28:39.120Z,82
2023-02-28T02:32:04.307Z,83
2023-02-28T02:35:29.496Z,83
2023-02-28T02:38:54.616Z,82
2023-02-28T02:42:19.776Z,82
2023-02-28T02:45:44.947Z,83
2023-02-28T02:49:10.057Z,83
2023-02-28T02:52:35.209Z,83
2023-02-28T02:56:00.393Z,82
2023-02-28T02:59:25.518Z,82
2023-02-28T03:02:50.718Z,82
2023-02-28T03:06:15.857Z,83
2023-02-28T03:09:41.008Z,83
2023-02-28T03:13:06.166Z,83
2023-02-28T03:16:31.366Z,82
2023-02-28T03:19:56.526Z,83
2023-02-28T03:23:21.655Z,83
2023-02-28T03:26:46.825Z,83
2023-02-28T03:30:11.977Z,83
2023-02-28T03:33:37.138Z,83
2023-02-28T03:37:02.401Z,83
2023-02-28T03:40:27.525Z,83
2023-02-28T03:43:52.692Z,84
2023-02-28T03:47:17.862Z,84
2023-02-28T03:50:43.018Z,84
2023-02-28T03:54:08.178Z,85
2023-02-28T03:57:33.348Z,85
2023-02-28T04:00:58.539Z,85
2023-02-28T04:04:23.784Z,84
2023-02-28T04:07:48.852Z,84
2023-02-28T04:11:14.048Z,85
2023-02-28T04:14:39.173Z,85
2023-02-28T04:18:04.351Z,85
2023-02-28T04:21:29.751Z,85
2023-02-28T04:24:54.679Z,85
2023-02-28T04:28:19.865Z,86
2023-02-28T04:31:45.047Z,86
2023-02-28T04:35:12.330Z,86
2023-02-28T04:38:35.559Z,86
2023-02-28T04:42:00.741Z,86
2023-02-28T04:45:26.628Z,86
2023-02-28T04:48:51.707Z,87
2023-02-28T04:52:16.857Z,87
2023-02-28T04:55:42.019Z,87
2023-02-28T04:59:07.221Z,87
2023-02-28T05:02:32.459Z,86
2023-02-28T05:05:57.600Z,86
2023-02-28T05:09:22.739Z,86
2023-02-28T05:12:47.916Z,86
2023-02-28T05:16:13.130Z,86
2023-02-28T05:19:38.250Z,86
2023-02-28T05:23:03.406Z,86
2023-02-28T05:26:28.624Z,86
2023-02-28T05:29:53.778Z,86
2023-02-28T05:33:18.960Z,86
2023-02-28T05:36:44.157Z,86
2023-02-28T05:40:09.289Z,86
2023-02-28T05:43:34.453Z,85
2023-02-28T05:46:59.633Z,85
2023-02-28T05:50:24.807Z,85
2023-02-28T05:53:49.981Z,85
2023-02-28T05:57:22.817Z,85
2023-02-28T06:00:42.077Z,86
2023-02-28T06:04:05.481Z,86
2023-02-28T06:07:30.633Z,87
2023-02-28T06:10:55.867Z,86
2023-02-28T06:14:20.953Z,87
2023-02-28T06:17:46.122Z,87
2023-02-28T06:21:11.306Z,88
2023-02-28T06:24:36.464Z,88
2023-02-28T06:28:01.733Z,88
2023-02-28T06:31:27.126Z,88
2023-02-28T06:34:51.983Z,89
2023-02-28T06:38:17.153Z,89
2023-02-28T06:41:53.923Z,89
2023-02-28T06:45:07.543Z,89
2023-02-28T06:48:34.997Z,90
2023-02-28T06:51:57.887Z,91
2023-02-28T06:55:23.069Z,90
2023-02-28T06:58:48.317Z,90
2023-02-28T07:02:13.551Z,90
2023-02-28T07:05:38.694Z,90
2023-02-28T07:09:03.860Z,90
2023-02-28T07:12:29.039Z,90
2023-02-28T07:15:54.233Z,88
2023-02-28T07:19:19.413Z,88
2023-02-28T07:22:44.572Z,90
2023-02-28T07:26:09.782Z,84
2023-02-28T07:29:34.937Z,81
2023-02-28T07:33:00.138Z,79
2023-02-28T07:36:25.354Z,79
2023-02-28T07:39:50.526Z,81
2023-02-28T07:43:15.751Z,83
2023-02-28T07:46:40.988Z,84
2023-02-28T07:50:06.073Z,84
2023-02-28T07:53:31.285Z,84
2023-02-28T07:56:56.620Z,84
2023-02-28T08:00:21.796Z,83
2023-02-28T08:03:46.931Z,82
2023-02-28T08:07:12.124Z,81
2023-02-28T08:10:37.300Z,80
2023-02-28T08:14:02.444Z,81
2023-02-28T08:17:27.643Z,80
2023-02-28T08:20:52.839Z,80
2023-02-28T08:24:18.028Z,79
2023-02-28T08:27:43.227Z,79
2023-02-28T08:31:08.470Z,78
2023-02-28T08:34:33.547Z,78
2023-02-28T08:37:58.729Z,77
2023-02-28T08:41:23.939Z,77
2023-02-28T08:44:49.151Z,77
2023-02-28T08:48:14.301Z,76
2023-02-28T08:51:39.474Z,75
2023-02-28T08:55:04.640Z,75
2023-02-28T08:58:29.832Z,75
2023-02-28T09:01:55.044Z,75
2023-02-28T09:05:20.235Z,74
2023-02-28T09:08:45.466Z,74
2023-02-28T09:12:10.696Z,72
2023-02-28T09:15:35.848Z,73
2023-02-28T09:19:01.181Z,72
2023-02-28T09:22:26.217Z,72
2023-02-28T09:25:51.417Z,72
2023-02-28T09:29:16.592Z,72
2023-02-28T09:32:41.774Z,71
2023-02-28T09:36:07.032Z,71
2023-02-28T09:39:32.165Z,72
2023-02-28T09:42:57.359Z,71
2023-02-28T09:46:22.610Z,69
2023-02-28T09:49:47.744Z,71
2023-02-28T09:53:12.923Z,71
2023-02-28T09:56:38.049Z,70
2023-02-28T10:00:03.227Z,69
2023-02-28T10:03:28.392Z,69
2023-02-28T10:06:53.564Z,69
2023-02-28T10:10:18.821Z,69
2023-02-28T10:13:43.887Z,69
2023-02-28T10:17:09.294Z,70
2023-02-28T10:20:34.466Z,68
2023-02-28T10:23:59.634Z,67
2023-02-28T10:27:24.829Z,67
2023-02-28T10:30:50.017Z,66
2023-02-28T10:34:15.131Z,67
2023-02-28T10:37:40.293Z,67
2023-02-28T10:41:05.482Z,67
2023-02-28T10:44:30.677Z,66
2023-02-28T10:47:55.826Z,66
2023-02-28T10:51:21.014Z,64
2023-02-28T10:54:46.141Z,66
2023-02-28T10:58:11.289Z,66
2023-02-28T11:01:36.514Z,66
2023-02-28T11:05:01.726Z,65
2023-02-28T11:08:26.797Z,65
2023-02-28T11:11:51.957Z,65
2023-02-28T11:15:17.121Z,66
2023-02-28T11:18:42.288Z,67
2023-02-28T11:22:07.435Z,66
2023-02-28T11:25:32.612Z,66
2023-02-28T11:28:57.782Z,64
2023-02-28T11:32:23.060Z,65
2023-02-28T11:35:48.189Z,64
2023-02-28T11:39:13.284Z,65
2023-02-28T11:42:38.449Z,66
2023-02-28T11:46:03.625Z,64
2023-02-28T11:49:28.800Z,65
2023-02-28T11:52:54.006Z,65
2023-02-28T11:56:19.174Z,65
2023-02-28T11:59:44.351Z,65
2023-02-28T12:03:09.522Z,67
2023-02-28T12:06:34.704Z,65
2023-02-28T12:09:59.945Z,65
2023-02-28T12:13:25.242Z,66
2023-02-28T12:16:50.448Z,66
2023-02-28T12:20:15.749Z,65
2023-02-28T12:23:40.938Z,66
2023-02-28T12:27:06.140Z,66
2023-02-28T12:30:31.302Z,65
2023-02-28T12:33:56.493Z,63
2023-02-28T12:37:21.692Z,63
2023-02-28T12:40:46.892Z,65
2023-02-28T12:44:12.119Z,66
2023-02-28T12:47:37.305Z,65
2023-02-28T12:51:03.432Z,66
2023-02-28T12:54:27.654Z,65
2023-02-28T12:57:52.856Z,66
2023-02-28T13:01:18.075Z,64
2023-02-28T13:04:43.190Z,65
2023-02-28T13:08:08.357Z,65
2023-02-28T13:11:33.716Z,65
2023-02-28T13:14:58.740Z,65
2023-02-28T13:18:24.117Z,66
2023-02-28T13:21:50.044Z,66
2023-02-28T13:25:14.684Z,66
2023-02-28T13:28:40.017Z,66
2023-02-28T13:32:05.356Z,65
2023-02-28T13:35:30.788Z,66
2023-02-28T13:38:56.182Z,67
2023-02-28T13:42:21.483Z,66
2023-02-28T13:45:46.886Z,68
2023-02-28T13:49:12.179Z,66
2023-02-28T13:52:37.534Z,66
2023-02-28T13:56:02.809Z,68
2023-02-28T13:59:28.125Z,68
2023-02-28T14:02:53.777Z,68
2023-02-28T14:06:19.136Z,68
2023-02-28T14:09:44.502Z,67
2023-02-28T14:13:10.955Z,68
2023-02-28T14:16:36.262Z,69
2023-02-28T14:20:01.579Z,68
2023-02-28T14:23:26.897Z,68
2023-02-28T14:26:52.339Z,68
2023-02-28T14:30:17.538Z,66
2023-02-28T15:05:47.510Z,69
2023-02-28T15:09:12.814Z,69
2023-02-28T15:12:38.165Z,70
2023-02-28T15:16:04.232Z,69
2023-02-28T15:19:28.779Z,69
2023-02-28T15:22:54.169Z,70
2023-02-28T15:26:19.582Z,69
2023-02-28T15:29:44.900Z,68
2023-02-28T15:33:10.250Z,71
2023-02-28T15:36:35.499Z,70
2023-02-28T15:40:00.874Z,69
2023-02-28T15:43:26.171Z,69
2023-02-28T15:46:51.504Z,70
2023-02-28T15:50:16.956Z,70
2023-02-28T15:53:42.264Z,69
2023-02-28T15:57:07.621Z,70
2023-02-28T16:00:32.962Z,69
2023-02-28T16:03:58.990Z,70
2023-02-28T16:07:24.331Z,70
2023-02-28T16:10:49.663Z,70
2023-02-28T16:14:14.950Z,69
2023-02-28T16:17:40.289Z,70
2023-02-28T16:21:05.683Z,71
2023-02-28T16:24:31.769Z,71
2023-02-28T16:27:57.040Z,71
2023-02-28T16:31:22.580Z,71
2023-02-28T16:34:47.810Z,71
2023-02-28T16:38:13.091Z,71
2023-02-28T16:41:38.751Z,71
2023-02-28T16:45:04.086Z,71
2023-02-28T16:48:29.440Z,72
2023-02-28T16:51:55.629Z,72
2023-02-28T16:55:20.946Z,72
2023-02-28T16:58:46.192Z,72
2023-02-28T17:02:11.622Z,72
2023-02-28T17:05:36.820Z,72
2023-02-28T17:09:02.082Z,72
2023-02-28T17:12:27.389Z,72
2023-02-28T17:15:52.762Z,72
2023-02-28T17:19:17.970Z,73
2023-02-28T17:22:43.301Z,73
2023-02-28T17:26:08.553Z,73
2023-02-28T17:29:33.869Z,73
2023-02-28T17:32:59.133Z,73
2023-02-28T17:36:24.459Z,73
2023-02-28T17:39:49.782Z,73
2023-02-28T17:43:15.042Z,73
2023-02-28T17:46:40.322Z,73
2023-02-28T17:50:05.558Z,73
2023-02-28T17:53:30.916Z,74
2023-02-28T17:56:56.238Z,74
2023-02-28T18:00:21.559Z,73
2023-02-28T18:03:46.929Z,74
2023-02-28T18:07:12.316Z,74
2023-02-28T18:10:37.705Z,75
2023-02-28T18:14:03.069Z,74
2023-02-28T18:17:28.412Z,74
2023-02-28T18:20:53.824Z,74
2023-02-28T18:24:19.193Z,74
2023-02-28T18:27:44.563Z,73
2023-02-28T18:31:09.998Z,73
2023-02-28T18:34:35.377Z,73
2023-02-28T18:38:00.665Z,73
2023-02-28T18:41:25.995Z,74
2023-02-28T18:44:51.285Z,74
2023-02-28T18:48:16.706Z,74
2023-02-28T18:51:41.936Z,75
2023-02-28T18:55:07.219Z,75
2023-02-28T18:58:32.540Z,75
2023-02-28T19:01:57.869Z,75
2023-02-28T19:05:23.193Z,75
2023-02-28T19:08:48.495Z,75
2023-02-28T19:12:13.847Z,75
2023-02-28T19:15:39.116Z,75
2023-02-28T19:19:04.416Z,75
2023-02-28T19:22:29.762Z,75
2023-02-28T19:25:55.076Z,75
2023-02-28T19:29:20.355Z,75
2023-02-28T19:32:45.733Z,74
2023-02-28T19:36:10.991Z,74
2023-02-28T19:39:36.322Z,74
2023-02-28T19:43:03.403Z,74
2023-02-28T19:46:26.828Z,74
2023-02-28T19:49:52.178Z,73
2023-02-28T19:53:17.452Z,74
2023-02-28T19:56:42.770Z,74
2023-02-28T20:00:08.029Z,74
2023-02-28T20:03:33.328Z,74
2023-02-28T20:06:58.679Z,74
2023-02-28T20:10:24.004Z,73
2023-02-28T20:13:49.364Z,73
2023-02-28T20:17:14.662Z,74
2023-02-28T20:20:39.951Z,74
2023-02-28T20:24:06.201Z,74
2023-02-28T20:27:31.529Z,74
2023-02-28T20:30:56.950Z,74
2023-02-28T20:34:22.155Z,74
2023-02-28T20:37:47.509Z,74
2023-02-28T20:41:12.787Z,74
2023-02-28T20:44:38.061Z,75
2023-02-28T20:48:03.410Z,75
2023-02-28T20:51:28.704Z,74
2023-02-28T20:54:53.977Z,75
2023-02-28T20:58:19.305Z,75
2023-02-28T21:01:44.583Z,75
2023-02-28T21:05:09.652Z,75
2023-02-28T21:08:34.796Z,75
2023-02-28T21:11:59.966Z,74
2023-02-28T21:15:25.128Z,74
2023-02-28T21:18:50.296Z,75
2023-02-28T21:22:15.504Z,75
2023-02-28T21:25:40.643Z,75
2023-02-28T21:29:05.829Z,75
2023-02-28T21:32:31.079Z,75
2023-02-28T21:35:56.911Z,75
2023-02-28T21:39:22.028Z,74
2023-02-28T21:42:47.154Z,74
2023-02-28T21:46:12.328Z,74
2023-02-28T21:49:37.496Z,75
2023-02-28T21:53:02.662Z,75
2023-02-28T21:56:28.033Z,75
2023-02-28T21:59:52.973Z,75
2023-02-28T22:03:18.125Z,75
2023-02-28T22:06:43.294Z,75
2023-02-28T22:10:08.445Z,75
2023-02-28T22:13:33.625Z,76
2023-02-28T22:16:59.167Z,76
2023-02-28T22:20:23.928Z,76
2023-02-28T22:23:49.151Z,76
2023-02-28T22:27:14.332Z,76
2023-02-28T22:30:39.535Z,77
2023-02-28T22:34:04.694Z,77
2023-02-28T22:37:29.837Z,76
2023-02-28T22:40:54.993Z,76
2023-02-28T22:44:20.161Z,76
2023-02-28T22:47:45.365Z,76
2023-02-28T22:51:12.237Z,77
2023-02-28T22:54:35.673Z,77
2023-02-28T22:58:00.812Z,77
2023-02-28T23:01:26.004Z,77
2023-02-28T23:04:51.156Z,77
2023-02-28T23:08:16.320Z,77
2023-02-28T23:11:41.547Z,77
2023-02-28T23:15:06.710Z,77
2023-02-28T23:18:31.865Z,77
2023-02-28T23:21:57.031Z,78
2023-02-28T23:25:22.153Z,78
2023-02-28T23:28:47.321Z,78
2023-02-28T23:32:12.596Z,78
2023-02-28T23:35:37.675Z,78
2023-02-28T23:39:02.863Z,77
2023-02-28T23:42:28.001Z,77
2023-02-28T23:45:53.213Z,77
2023-02-28T23:49:18.347Z,76
2023-02-28T23:52:43.514Z,77
2023-02-28T23:56:08.709Z,76
2023-02-28T23:59:33.863Z,76
